Reidville, South Carolina
Current Conditions -  °F | °C
As of 5:10 PM on Monday 22 Dec 2014 (Local Time) from KGSP Reporting Station
Haze Haze  
Wind Chill: 35°   Ceiling: 400
Heat Index: 41°   Visibility: 2.5mi
Dew Point: 40°   Wind: 9mph
Humidity: 96%   Direction: 50°NE
Pressure: 29.99"   Gusts: NA
Location:  34.86°N, 82.11°W
Report Text: KGSP 222210Z 05008KT 2 1/2SM BR OVC004 05/04 A2999 RMK AO2 T00500044
Loading
Personal Weather Stations






























Interactive Weather Map New forecast layout! Learn more

10-Day Weather Forecast

Advertisements
Track Severe Weather on mobile